Glenville, Minnesota
Current Conditions -  °F | °C
As of 11:14 AM on Friday 24 Oct 2014 (Local Time) from KAEL Reporting Station
Haze Haze  
Wind Chill: 54°   Ceiling: 400
Heat Index: 54°   Visibility: 1mi
Dew Point: 54°   Wind: 8mph
Humidity: 100%   Direction: 170°S
Pressure: 29.9"   Gusts: NA
Location:  43.57°N, 93.28°W
Report Text: KAEL 241614Z AUTO 17007KT 1SM BR OVC004 12/12 A2990 RMK AO2
Loading
Personal Weather Stations






























Interactive Weather Map
Tropical Storm Tracking
New forecast layout! Learn more

10-Day Weather Forecast

Advertisements
Track Severe Weather on mobile